createdAt,value
2023-10-15T00:00:39.048Z,3.20
2023-10-15T00:03:08.574Z,3.10
2023-10-15T00:05:44.688Z,3.65
2023-10-15T00:08:12.170Z,3.40
2023-10-15T00:10:42.939Z,3.35
2023-10-15T00:13:12.130Z,3.17
2023-10-15T00:15:41.078Z,3.45
2023-10-15T00:18:09.027Z,3.30
2023-10-15T00:20:37.148Z,3.10
2023-10-15T00:23:06.315Z,3.10
2023-10-15T00:25:48.993Z,3.40
2023-10-15T00:28:17.148Z,3.58
2023-10-15T00:30:52.996Z,3.58
2023-10-15T00:33:26.533Z,3.10
2023-10-15T00:38:25.896Z,3.28
2023-10-15T00:41:02.651Z,3.05
2023-10-15T00:43:34.865Z,3.38
2023-10-15T00:46:14.725Z,3.47
2023-10-15T00:48:46.716Z,3.63
2023-10-15T00:51:15.173Z,3.80
2023-10-15T00:53:55.048Z,3.45
2023-10-15T00:56:37.097Z,3.35
2023-10-15T00:59:07.171Z,3.60
2023-10-15T01:01:43.758Z,3.83
2023-10-15T01:04:16.915Z,3.83
2023-10-15T01:06:50.961Z,3.33
2023-10-15T01:09:21.864Z,3.80
2023-10-15T01:11:58.665Z,3.47
2023-10-15T01:14:34.257Z,3.70
2023-10-15T01:17:02.387Z,4.25
2023-10-15T01:19:37.384Z,4.05
2023-10-15T01:22:19.591Z,3.70
2023-10-15T01:24:55.185Z,3.75
2023-10-15T01:27:31.956Z,3.50
2023-10-15T01:30:05.317Z,3.83
2023-10-15T01:32:39.748Z,3.42
2023-10-15T01:35:12.183Z,3.67
2023-10-15T01:37:47.367Z,3.43
2023-10-15T01:40:38.240Z,3.85
2023-10-15T01:43:13.969Z,3.58
2023-10-15T01:45:48.695Z,3.80
2023-10-15T01:48:31.886Z,3.95
2023-10-15T01:51:10.985Z,3.72
2023-10-15T01:53:46.503Z,3.72
2023-10-15T01:56:21.384Z,3.97
2023-10-15T01:58:49.404Z,3.65
2023-10-15T02:01:33.240Z,3.75
2023-10-15T02:04:03.297Z,3.97
2023-10-15T02:06:36.765Z,3.30
2023-10-15T02:11:48.675Z,3.60
2023-10-15T02:14:22.754Z,3.90
2023-10-15T02:16:55.055Z,3.63
2023-10-15T02:19:51.881Z,3.63
2023-10-15T02:22:22.571Z,3.50
2023-10-15T02:24:57.416Z,3.38
2023-10-15T02:27:31.630Z,3.58
2023-10-15T02:29:58.938Z,3.65
2023-10-15T02:32:28.881Z,3.80
2023-10-15T02:35:07.280Z,3.90
2023-10-15T02:37:34.625Z,3.90
2023-10-15T02:40:17.407Z,3.88
2023-10-15T02:42:54.878Z,3.80
2023-10-15T02:45:36.707Z,3.67
2023-10-15T02:48:20.992Z,3.50
2023-10-15T02:51:01.738Z,4.00
2023-10-15T02:53:35.285Z,3.75
2023-10-15T02:56:12.338Z,4.00
2023-10-15T02:58:44.423Z,3.47
2023-10-15T03:01:20.858Z,3.95
2023-10-15T03:03:57.550Z,3.42
2023-10-15T03:06:37.390Z,3.40
2023-10-15T03:09:12.618Z,3.33
2023-10-15T03:11:51.443Z,3.88
2023-10-15T03:14:26.434Z,3.63
2023-10-15T03:16:58.362Z,3.72
2023-10-15T03:19:25.872Z,3.80
2023-10-15T03:22:00.490Z,3.20
2023-10-15T03:24:33.367Z,3.60
2023-10-15T03:27:05.646Z,3.97
2023-10-15T03:29:34.121Z,3.97
2023-10-15T03:32:11.060Z,3.58
2023-10-15T03:34:49.099Z,3.72
2023-10-15T03:37:23.672Z,3.65
2023-10-15T03:39:57.209Z,4.13
2023-10-15T03:45:00.953Z,3.88
2023-10-15T03:47:33.539Z,3.47
2023-10-15T03:50:07.676Z,3.53
2023-10-15T03:52:38.657Z,3.70
2023-10-15T03:55:06.834Z,4.07
2023-10-15T03:57:38.828Z,3.70
2023-10-15T04:00:29.718Z,3.75
2023-10-15T04:03:08.242Z,3.88
2023-10-15T04:05:38.565Z,3.47
2023-10-15T04:08:20.495Z,3.78
2023-10-15T04:10:58.372Z,3.50
2023-10-15T04:13:29.199Z,2.92
2023-10-15T04:16:02.064Z,3.70
2023-10-15T04:18:31.564Z,3.72
2023-10-15T04:21:00.185Z,3.50
2023-10-15T04:23:32.857Z,3.53
2023-10-15T04:26:08.857Z,3.80
2023-10-15T04:28:44.630Z,4.07
2023-10-15T04:31:23.693Z,3.40
2023-10-15T04:33:54.464Z,3.72
2023-10-15T04:36:24.368Z,4.05
2023-10-15T04:39:09.698Z,3.72
2023-10-15T04:41:37.221Z,3.58
2023-10-15T04:44:05.824Z,3.78
2023-10-15T04:46:42.809Z,3.30
2023-10-15T04:49:16.407Z,3.95
2023-10-15T04:51:49.019Z,3.72
2023-10-15T04:54:18.718Z,3.30
2023-10-15T04:56:51.097Z,3.75
2023-10-15T04:59:27.506Z,3.72
2023-10-15T05:01:54.858Z,3.45
2023-10-15T05:04:24.329Z,3.75
2023-10-15T05:07:00.467Z,3.40
2023-10-15T05:09:35.101Z,3.10
2023-10-15T05:12:08.176Z,4.03
2023-10-15T05:14:41.340Z,3.33
2023-10-15T05:17:08.788Z,3.85
2023-10-15T05:19:38.158Z,3.60
2023-10-15T05:22:07.824Z,3.50
2023-10-15T05:24:42.619Z,3.25
2023-10-15T05:27:13.919Z,3.33
2023-10-15T05:29:43.568Z,3.30
2023-10-15T05:32:16.244Z,3.72
2023-10-15T05:34:46.188Z,3.45
2023-10-15T05:37:17.374Z,3.28
2023-10-15T05:39:47.154Z,3.67
2023-10-15T05:42:17.113Z,3.65
2023-10-15T05:44:46.732Z,3.60
2023-10-15T05:47:14.182Z,3.58
2023-10-15T05:49:41.563Z,3.13
2023-10-15T05:52:09.863Z,4.07
2023-10-15T05:54:37.729Z,3.65
2023-10-15T05:57:07.638Z,3.67
2023-10-15T05:59:38.293Z,3.13
2023-10-15T06:02:05.870Z,3.90
2023-10-15T06:04:39.884Z,3.42
2023-10-15T06:07:09.669Z,3.60
2023-10-15T06:09:45.649Z,3.53
2023-10-15T06:12:18.865Z,3.42
2023-10-15T06:14:46.449Z,3.20
2023-10-15T06:17:13.763Z,3.60
2023-10-15T06:19:46.100Z,3.22
2023-10-15T06:22:16.547Z,3.70
2023-10-15T06:24:48.009Z,3.30
2023-10-15T06:27:19.337Z,3.72
2023-10-15T06:29:52.680Z,3.28
2023-10-15T06:32:19.936Z,3.20
2023-10-15T06:34:49.728Z,3.65
2023-10-15T06:37:19.704Z,3.75
2023-10-15T06:39:49.851Z,3.22
2023-10-15T06:42:17.441Z,3.67
2023-10-15T06:44:52.622Z,3.10
2023-10-15T06:47:20.255Z,3.33
2023-10-15T06:49:47.674Z,3.28
2023-10-15T06:52:22.814Z,3.10
2023-10-15T06:54:56.172Z,3.22
2023-10-15T06:57:27.009Z,3.08
2023-10-15T06:59:57.703Z,3.20
2023-10-15T07:02:30.076Z,3.20
2023-10-15T07:05:03.520Z,3.53
2023-10-15T07:10:05.810Z,3.65
2023-10-15T07:12:34.038Z,3.67
2023-10-15T07:15:03.808Z,2.95
2023-10-15T07:17:33.926Z,3.42
2023-10-15T07:20:04.833Z,3.45
2023-10-15T07:22:35.093Z,3.20
2023-10-15T07:25:09.915Z,3.47
2023-10-15T07:27:43.042Z,3.65
2023-10-15T07:30:13.742Z,3.70
2023-10-15T07:32:42.224Z,3.40
2023-10-15T07:35:13.811Z,3.47
2023-10-15T07:37:51.289Z,3.35
2023-10-15T07:40:23.858Z,3.58
2023-10-15T07:42:54.595Z,3.95
2023-10-15T07:45:35.471Z,3.25
2023-10-15T07:48:05.232Z,3.50
2023-10-15T07:50:36.288Z,3.03
2023-10-15T07:53:07.307Z,3.20
2023-10-15T07:55:37.786Z,3.17
2023-10-15T07:58:11.000Z,3.63
2023-10-15T08:00:44.029Z,3.30
2023-10-15T08:03:20.579Z,3.30
2023-10-15T08:05:49.799Z,3.55
2023-10-15T08:08:17.974Z,3.38
2023-10-15T08:10:45.391Z,3.38
2023-10-15T08:13:14.068Z,3.22
2023-10-15T08:15:43.828Z,3.28
2023-10-15T08:18:19.099Z,3.28
2023-10-15T08:20:47.214Z,3.05
2023-10-15T08:23:20.218Z,3.33
2023-10-15T08:25:50.833Z,3.38
2023-10-15T08:28:22.919Z,3.63
2023-10-15T08:30:55.841Z,3.45
2023-10-15T08:33:26.218Z,3.38
2023-10-15T08:35:53.579Z,3.22
2023-10-15T08:38:24.184Z,3.13
2023-10-15T08:40:55.986Z,2.92
2023-10-15T08:43:30.552Z,3.03
2023-10-15T08:46:01.868Z,3.40
2023-10-15T08:48:32.902Z,3.28
2023-10-15T08:51:03.295Z,3.28
2023-10-15T08:53:37.593Z,3.35
2023-10-15T08:56:08.704Z,3.67
2023-10-15T08:58:42.917Z,3.40
2023-10-15T09:01:15.128Z,3.38
2023-10-15T09:03:45.186Z,3.30
2023-10-15T09:06:17.047Z,3.47
2023-10-15T09:08:51.938Z,3.08
2023-10-15T09:11:22.906Z,3.10
2023-10-15T09:13:55.960Z,3.38
2023-10-15T09:16:25.636Z,3.55
2023-10-15T09:18:56.519Z,2.88
2023-10-15T09:21:26.897Z,3.60
2023-10-15T09:23:56.410Z,3.50
2023-10-15T09:26:23.887Z,3.22
2023-10-15T09:28:53.496Z,3.40
2023-10-15T09:31:21.950Z,3.60
2023-10-15T09:33:52.460Z,3.20
2023-10-15T09:36:27.428Z,3.63
2023-10-15T09:38:55.769Z,3.22
2023-10-15T09:41:27.090Z,3.65
2023-10-15T09:44:00.221Z,3.80
2023-10-15T09:46:34.508Z,3.17
2023-10-15T09:49:05.405Z,3.20
2023-10-15T09:51:34.118Z,3.50
2023-10-15T09:54:04.913Z,3.33
2023-10-15T09:56:35.968Z,3.42
2023-10-15T09:59:11.670Z,3.70
2023-10-15T10:01:46.060Z,3.38
2023-10-15T10:04:24.817Z,3.50
2023-10-15T10:07:13.746Z,3.85
2023-10-15T10:09:55.803Z,3.70
2023-10-15T10:12:33.294Z,3.42
2023-10-15T10:15:30.487Z,3.92
2023-10-15T10:17:58.300Z,3.22
2023-10-15T10:20:33.339Z,3.60
2023-10-15T10:23:04.305Z,4.00
2023-10-15T10:25:38.404Z,3.80
2023-10-15T10:28:17.298Z,4.07
2023-10-15T10:31:20.277Z,4.22
2023-10-15T10:33:54.907Z,4.50
2023-10-15T10:36:29.412Z,3.92
2023-10-15T10:39:19.342Z,4.03
2023-10-15T10:41:55.587Z,4.35
2023-10-15T10:44:31.749Z,4.30
2023-10-15T10:47:16.644Z,5.03
2023-10-15T10:49:57.071Z,4.32
2023-10-15T10:52:31.479Z,4.68
2023-10-15T10:55:32.024Z,4.75
2023-10-15T10:58:04.489Z,4.45
2023-10-15T11:00:34.531Z,4.43
2023-10-15T11:03:08.355Z,4.60
2023-10-15T11:05:44.857Z,4.60
2023-10-15T11:08:20.074Z,4.65
2023-10-15T11:10:52.036Z,5.00
2023-10-15T11:13:21.798Z,4.82
2023-10-15T11:15:53.217Z,4.70
2023-10-15T11:18:32.113Z,4.90
2023-10-15T11:21:04.861Z,5.15
2023-10-15T11:23:34.897Z,4.82
2023-10-15T11:26:09.798Z,4.78
2023-10-15T11:28:42.100Z,5.10
2023-10-15T11:31:11.729Z,4.80
2023-10-15T11:33:41.536Z,5.50
2023-10-15T11:36:12.420Z,5.40
2023-10-15T11:38:44.319Z,7.43
2023-10-15T11:41:13.618Z,13.15
2023-10-15T11:43:52.767Z,13.57
2023-10-15T11:46:24.615Z,17.73
2023-10-15T11:48:55.348Z,20.80
2023-10-15T11:51:26.152Z,19.13
2023-10-15T11:53:53.445Z,22.00
2023-10-15T11:56:21.590Z,19.85
2023-10-15T11:58:49.524Z,19.77
2023-10-15T12:01:19.464Z,19.50
2023-10-15T12:03:52.156Z,18.88
2023-10-15T12:06:26.110Z,19.50
2023-10-15T12:09:01.337Z,19.02
2023-10-15T12:11:28.750Z,16.63
2023-10-15T12:13:58.600Z,17.08
2023-10-15T12:16:28.025Z,16.38
2023-10-15T12:18:55.289Z,16.83
2023-10-15T12:21:25.326Z,15.90
2023-10-15T12:23:59.370Z,16.23
2023-10-15T12:26:27.210Z,15.43
2023-10-15T12:28:55.538Z,14.95
2023-10-15T12:31:28.602Z,14.18
2023-10-15T12:33:57.311Z,13.30
2023-10-15T12:36:27.202Z,14.02
2023-10-15T12:39:00.508Z,14.05
2023-10-15T12:41:31.890Z,13.77
2023-10-15T12:44:10.803Z,12.65
2023-10-15T12:46:39.393Z,12.75
2023-10-15T12:49:11.987Z,12.50
2023-10-15T12:51:42.331Z,13.73
2023-10-15T12:54:14.948Z,12.13
2023-10-15T12:56:44.946Z,13.73
2023-10-15T12:59:12.990Z,12.57
2023-10-15T13:01:45.683Z,12.02
2023-10-15T13:04:14.260Z,12.00
2023-10-15T13:06:48.062Z,12.38
2023-10-15T13:09:21.154Z,11.68
2023-10-15T13:11:53.225Z,11.35
2023-10-15T13:14:23.013Z,11.23
2023-10-15T13:16:56.248Z,10.50
2023-10-15T13:19:23.594Z,10.23
2023-10-15T13:21:52.255Z,10.52
2023-10-15T13:24:20.196Z,9.75
2023-10-15T13:26:48.248Z,11.05
2023-10-15T13:29:17.994Z,9.48
2023-10-15T13:31:47.605Z,11.10
2023-10-15T13:34:22.948Z,10.05
2023-10-15T13:36:53.382Z,10.15
2023-10-15T13:39:29.698Z,10.27
2023-10-15T13:42:00.932Z,9.82
2023-10-15T13:44:28.361Z,9.93
2023-10-15T13:46:56.020Z,9.15
2023-10-15T13:49:29.082Z,9.68
2023-10-15T13:51:58.833Z,9.10
2023-10-15T13:54:30.051Z,9.25
2023-10-15T13:57:02.800Z,9.07
2023-10-15T13:59:30.172Z,9.15
2023-10-15T14:02:00.747Z,8.45
2023-10-15T14:04:32.349Z,8.65
2023-10-15T14:07:02.503Z,8.95
2023-10-15T14:09:35.602Z,8.88
2023-10-15T14:12:06.286Z,8.67
2023-10-15T14:14:34.892Z,8.40
2023-10-15T14:17:05.423Z,7.95
2023-10-15T14:19:33.004Z,8.13
2023-10-15T14:22:02.642Z,8.05
2023-10-15T14:24:30.193Z,8.02
2023-10-15T14:27:02.294Z,8.00
2023-10-15T14:29:36.888Z,7.57
2023-10-15T14:32:04.403Z,7.75
2023-10-15T14:34:34.884Z,7.72
2023-10-15T14:37:02.380Z,7.25
2023-10-15T14:39:33.108Z,7.05
2023-10-15T14:42:06.277Z,7.07
2023-10-15T14:44:36.305Z,6.70
2023-10-15T14:47:09.579Z,6.97
2023-10-15T14:49:38.170Z,6.97
2023-10-15T14:52:10.192Z,7.30
2023-10-15T14:54:37.660Z,6.20
2023-10-15T14:57:14.286Z,6.60
2023-10-15T14:59:44.414Z,6.50
2023-10-15T15:02:11.828Z,6.70
2023-10-15T15:04:42.022Z,6.22
2023-10-15T15:07:09.436Z,5.63
2023-10-15T15:09:41.644Z,5.88
2023-10-15T15:12:11.822Z,5.95
2023-10-15T15:14:41.597Z,5.47
2023-10-15T15:17:15.878Z,5.97
2023-10-15T15:19:48.690Z,5.25
2023-10-15T15:22:16.251Z,5.07
2023-10-15T15:24:43.722Z,5.15
2023-10-15T15:27:13.478Z,5.00
2023-10-15T15:29:46.361Z,5.32
2023-10-15T15:32:16.570Z,4.53
2023-10-15T15:34:47.082Z,4.97
2023-10-15T15:37:20.402Z,4.43
2023-10-15T15:39:48.333Z,4.53
2023-10-15T15:42:16.506Z,4.38
2023-10-15T15:44:48.320Z,4.65
2023-10-15T15:47:18.270Z,4.25
2023-10-15T15:49:48.238Z,4.22
2023-10-15T15:52:15.669Z,4.43
2023-10-15T15:54:47.635Z,4.13
2023-10-15T15:57:19.794Z,4.15
2023-10-15T15:59:48.931Z,4.35
2023-10-15T16:02:19.408Z,3.92
2023-10-15T16:04:47.767Z,3.58
2023-10-15T16:07:15.323Z,3.72
2023-10-15T16:09:45.799Z,3.58
2023-10-15T16:12:16.138Z,3.60
2023-10-15T16:14:43.495Z,3.97
2023-10-15T16:17:17.091Z,3.47
2023-10-15T16:19:45.420Z,3.40
2023-10-15T16:22:15.517Z,3.47
2023-10-15T16:25:00.484Z,3.50
2023-10-15T16:27:34.941Z,3.20
2023-10-15T16:30:03.473Z,2.95
2023-10-15T16:32:33.918Z,2.85
2023-10-15T16:35:07.233Z,3.10
2023-10-15T16:37:35.890Z,2.80
2023-10-15T16:40:10.061Z,2.58
2023-10-15T16:42:40.368Z,2.63
2023-10-15T16:45:11.142Z,2.70
2023-10-15T16:47:39.438Z,2.70
2023-10-15T16:50:10.967Z,2.60
2023-10-15T16:52:44.200Z,2.42
2023-10-15T16:55:21.944Z,2.58
2023-10-15T16:57:51.599Z,3.05
2023-10-15T17:00:19.489Z,2.40
2023-10-15T17:02:53.075Z,2.45
2023-10-15T17:05:23.261Z,2.05
2023-10-15T17:07:55.882Z,2.13
2023-10-15T17:10:26.408Z,2.33
2023-10-15T17:12:58.763Z,2.33
2023-10-15T17:15:28.446Z,2.13
2023-10-15T17:17:58.723Z,2.30
2023-10-15T17:20:28.837Z,2.20
2023-10-15T17:23:00.251Z,1.90
2023-10-15T17:25:32.095Z,2.20
2023-10-15T17:28:05.034Z,1.90
2023-10-15T17:30:36.953Z,1.88
2023-10-15T17:33:12.893Z,2.05
2023-10-15T17:35:47.775Z,1.83
2023-10-15T17:38:19.321Z,2.17
2023-10-15T17:40:46.905Z,2.00
2023-10-15T17:43:16.639Z,1.83
2023-10-15T17:45:51.653Z,1.67
2023-10-15T17:48:22.179Z,1.80
2023-10-15T17:50:57.376Z,1.60
2023-10-15T17:53:29.345Z,1.77
2023-10-15T17:55:59.321Z,1.58
2023-10-15T17:58:31.360Z,1.60
2023-10-15T18:01:01.768Z,1.35
2023-10-15T18:03:32.258Z,1.50
2023-10-15T18:06:04.501Z,1.50
2023-10-15T18:08:37.579Z,1.42
2023-10-15T18:11:07.650Z,1.75
2023-10-15T18:13:38.867Z,1.70
2023-10-15T18:16:06.576Z,1.38
2023-10-15T18:18:36.400Z,1.50
2023-10-15T18:21:08.861Z,1.17
2023-10-15T18:23:38.826Z,1.40
2023-10-15T18:26:11.214Z,1.08
2023-10-15T18:28:43.022Z,1.42
2023-10-15T18:31:13.017Z,1.40
2023-10-15T18:33:46.300Z,1.50
2023-10-15T18:36:14.680Z,1.30
2023-10-15T18:38:42.050Z,1.27
2023-10-15T18:41:12.621Z,1.20
2023-10-15T18:43:45.730Z,1.25
2023-10-15T18:46:14.215Z,1.15
2023-10-15T18:48:44.304Z,1.25
2023-10-15T18:51:35.173Z,1.30
2023-10-15T18:54:00.530Z,0.90
2023-10-15T18:56:30.284Z,1.00
2023-10-15T18:59:04.393Z,0.88
2023-10-15T19:01:35.202Z,1.07
2023-10-15T19:04:07.817Z,0.80
2023-10-15T19:06:35.639Z,0.83
2023-10-15T19:09:05.645Z,0.90
2023-10-15T19:11:33.245Z,0.93
2023-10-15T19:14:05.883Z,0.70
2023-10-15T19:16:34.262Z,1.00
2023-10-15T19:19:04.772Z,1.10
2023-10-15T19:21:32.222Z,0.75
2023-10-15T19:23:59.748Z,0.82
2023-10-15T19:26:27.739Z,0.68
2023-10-15T19:28:57.580Z,0.75
2023-10-15T19:31:26.078Z,0.80
2023-10-15T19:33:53.612Z,0.70
2023-10-15T19:36:23.538Z,0.70
2023-10-15T19:38:53.417Z,0.82
2023-10-15T19:41:23.360Z,0.80
2023-10-15T19:43:50.715Z,0.88
2023-10-15T19:46:20.571Z,0.80
2023-10-15T19:48:47.992Z,0.68
2023-10-15T19:51:18.959Z,0.70
2023-10-15T19:53:49.075Z,0.70
2023-10-15T19:56:19.816Z,0.50
2023-10-15T19:58:49.549Z,0.47
2023-10-15T20:01:17.075Z,0.70
2023-10-15T20:04:02.763Z,0.60
2023-10-15T20:06:35.986Z,0.65
2023-10-15T20:09:13.247Z,0.70
2023-10-15T20:11:43.195Z,0.60
2023-10-15T20:14:15.247Z,0.63
2023-10-15T20:16:48.424Z,0.52
2023-10-15T20:19:15.762Z,0.60
2023-10-15T20:21:47.676Z,0.80
2023-10-15T20:24:17.807Z,0.60
2023-10-15T20:26:45.112Z,0.55
2023-10-15T20:29:12.435Z,0.55
2023-10-15T20:31:39.856Z,0.50
2023-10-15T20:34:10.185Z,0.40
2023-10-15T20:36:37.801Z,0.57
2023-10-15T20:39:11.148Z,0.55
2023-10-15T20:41:42.672Z,0.50
2023-10-15T20:44:15.768Z,0.40
2023-10-15T20:46:45.884Z,0.57
2023-10-15T20:49:17.385Z,0.50
2023-10-15T20:51:47.154Z,0.50
2023-10-15T20:54:17.605Z,0.60
2023-10-15T20:56:47.721Z,0.40
2023-10-15T20:59:17.766Z,0.60
2023-10-15T21:01:45.158Z,0.70
2023-10-15T21:04:12.589Z,0.38
2023-10-15T21:06:40.134Z,0.50
2023-10-15T21:09:07.642Z,0.40
2023-10-15T21:11:35.008Z,0.40
2023-10-15T21:14:04.568Z,0.30
2023-10-15T21:16:32.790Z,0.45
2023-10-15T21:19:00.160Z,0.63
2023-10-15T21:21:27.528Z,0.52
2023-10-15T21:23:55.704Z,0.40
2023-10-15T21:26:23.164Z,0.40
2023-10-15T21:28:53.293Z,0.50
2023-10-15T21:31:24.113Z,0.40
2023-10-15T21:33:53.852Z,0.40
2023-10-15T21:36:27.326Z,0.32
2023-10-15T21:38:57.107Z,0.25
2023-10-15T21:41:26.783Z,0.30
2023-10-15T21:43:54.318Z,0.43
2023-10-15T21:46:21.662Z,0.40
2023-10-15T21:48:53.696Z,0.35
2023-10-15T21:51:27.197Z,0.40
2023-10-15T21:53:54.551Z,0.50
2023-10-15T21:56:24.632Z,0.50
2023-10-15T21:58:55.463Z,0.35
2023-10-15T22:01:23.281Z,0.32
2023-10-15T22:03:52.999Z,0.40
2023-10-15T22:06:20.349Z,0.30
2023-10-15T22:08:47.983Z,0.40
2023-10-15T22:11:15.384Z,0.30
2023-10-15T22:13:59.974Z,0.30
2023-10-15T22:16:35.415Z,0.40
2023-10-15T22:19:08.522Z,0.28
2023-10-15T22:21:45.695Z,0.30
2023-10-15T22:24:21.028Z,0.30
2023-10-15T22:26:51.687Z,0.30
2023-10-15T22:29:30.964Z,0.20
2023-10-15T22:32:07.398Z,0.20
2023-10-15T22:34:37.198Z,0.28
2023-10-15T22:37:11.527Z,0.30
2023-10-15T22:39:41.316Z,0.22
2023-10-15T22:42:16.661Z,0.20
2023-10-15T22:44:48.956Z,0.40
2023-10-15T22:47:18.552Z,0.30
2023-10-15T22:49:48.659Z,0.20
2023-10-15T22:52:19.622Z,0.30
2023-10-15T22:54:52.787Z,0.40
2023-10-15T22:57:23.858Z,0.28
2023-10-15T22:59:51.981Z,0.30
2023-10-15T23:02:20.038Z,0.30
2023-10-15T23:04:50.417Z,0.30
2023-10-15T23:07:20.117Z,0.40
2023-10-15T23:09:50.329Z,0.20
2023-10-15T23:12:19.103Z,0.30
2023-10-15T23:14:51.607Z,0.25
2023-10-15T23:17:21.516Z,0.30
2023-10-15T23:19:50.669Z,0.20
2023-10-15T23:22:20.827Z,0.30
2023-10-15T23:24:49.033Z,0.43
2023-10-15T23:27:18.466Z,0.20
2023-10-15T23:29:53.081Z,0.22
2023-10-15T23:32:20.824Z,0.30
2023-10-15T23:34:53.550Z,0.20
2023-10-15T23:37:23.971Z,0.33
2023-10-15T23:39:54.197Z,0.17
2023-10-15T23:42:29.682Z,0.20
2023-10-15T23:45:07.401Z,0.20
2023-10-15T23:47:37.243Z,0.20
2023-10-15T23:50:15.733Z,0.20
2023-10-15T23:52:45.894Z,0.30
2023-10-15T23:55:19.538Z,0.20
2023-10-15T23:57:52.289Z,0.30
